This is the latest recevied weather packets stored in our database for station/object VK3XEM-13. If no packets are shown the sender has not sent any weather packets the latest 10 day(s).
| Time | Temp. | Humidity | Pressure | Rain* | Wind** | Luminosity | Snow |
|---|---|---|---|---|---|---|---|
| 1778297534 | 15.56° C | 80% | 1024.6 hPa | 0 mm | - | 110 W/m² | - |
| 1778296635 | 15.56° C | 78% | 1024.6 hPa | 0 mm | - | 96 W/m² | - |
| 1778295734 | 15.56° C | 80% | 1024.9 hPa | 0 mm | - | 443 W/m² | - |
| 1778294834 | 14.44° C | 82% | 1024.9 hPa | 0 mm | - | 191 W/m² | - |
| 1778293952 | 15° C | 82% | 1025.3 hPa | 0 mm | - | 125 W/m² | - |
| 1778293035 | 15° C | 83% | 1025.6 hPa | 0 mm | - | 123 W/m² | - |
| 1778292134 | 15° C | 81% | 1025.6 hPa | 0 mm | - | 139 W/m² | - |
| 1778291234 | 15.56° C | 79% | 1025.6 hPa | 0 mm | - | 176 W/m² | - |
| 1778290334 | 13.89° C | 87% | 1025.6 hPa | 0 mm | - | 159 W/m² | - |
| 1778289434 | 13.89° C | 88% | 1025.9 hPa | 0 mm | - | 95 W/m² | - |
| 1778288534 | 13.89° C | 87% | 1025.9 hPa | 0 mm | - | 134 W/m² | - |
| 1778287634 | 14.44° C | 85% | 1025.9 hPa | 0 mm | - | 85 W/m² | - |
| 1778286734 | 15° C | 81% | 1025.6 hPa | 0 mm | - | 202 W/m² | - |
| 1778285834 | 13.89° C | 88% | 1025.9 hPa | 0 mm | - | 221 W/m² | - |
| 1778284934 | 13.33° C | 89% | 1025.9 hPa | 0 mm | - | 129 W/m² | - |
| 1778284034 | 13.33° C | 91% | 1025.6 hPa | 0 mm | - | 179 W/m² | - |
| 1778283134 | 13.33° C | 92% | 1025.9 hPa | 0 mm | - | 151 W/m² | - |
| 1778282234 | 12.78° C | 94% | 1025.6 hPa | 0 mm | - | 143 W/m² | - |
| 1778281335 | 12.78° C | 95% | 1025.6 hPa | 0 mm | - | 140 W/m² | - |
| 1778280434 | 12.22° C | 95% | 1025.6 hPa | 0 mm | - | 53 W/m² | - |
| 1778279534 | 12.22° C | 96% | 1025.3 hPa | 0 mm | - | 95 W/m² | - |
| 1778278634 | 12.22° C | 96% | 1025.3 hPa | 0 mm | - | 53 W/m² | - |
| 1778277734 | 12.22° C | 96% | 1025.3 hPa | 0.25 mm | - | 26 W/m² | - |
| 1778276834 | 12.22° C | 96% | 1024.9 hPa | 0.51 mm | - | 18 W/m² | - |
| 1778275934 | 12.22° C | 96% | 1024.6 hPa | 0.51 mm | - | 18 W/m² | - |
* Rain latest hour (hover to see other rain measurements)
** Current wind speed in m/s (hover to see current wind gust speed)